sensor_id;sensor_type;location;lat;lon;timestamp;P1;durP1;ratioP1;P2;durP2;ratioP2
8714;SDS011;4394;51.208;8.904;2023-08-12T00:01:41;3.77;;;3.07;;
8714;SDS011;4394;51.208;8.904;2023-08-12T00:04:29;3.60;;;3.13;;
8714;SDS011;4394;51.208;8.904;2023-08-12T00:07:17;3.43;;;3.13;;
8714;SDS011;4394;51.208;8.904;2023-08-12T00:10:05;4.00;;;3.20;;
8714;SDS011;4394;51.208;8.904;2023-08-12T00:12:56;4.40;;;3.47;;
8714;SDS011;4394;51.208;8.904;2023-08-12T00:15:44;3.87;;;3.00;;
8714;SDS011;4394;51.208;8.904;2023-08-12T00:18:32;3.30;;;3.00;;
8714;SDS011;4394;51.208;8.904;2023-08-12T00:21:23;3.70;;;3.40;;
8714;SDS011;4394;51.208;8.904;2023-08-12T00:24:12;3.50;;;3.20;;
8714;SDS011;4394;51.208;8.904;2023-08-12T00:27:01;4.60;;;3.07;;
8714;SDS011;4394;51.208;8.904;2023-08-12T00:29:50;4.90;;;3.20;;
8714;SDS011;4394;51.208;8.904;2023-08-12T00:32:38;4.60;;;3.17;;
8714;SDS011;4394;51.208;8.904;2023-08-12T00:35:27;6.17;;;3.40;;
8714;SDS011;4394;51.208;8.904;2023-08-12T00:38:15;4.27;;;3.13;;
8714;SDS011;4394;51.208;8.904;2023-08-12T00:41:03;4.03;;;3.33;;
8714;SDS011;4394;51.208;8.904;2023-08-12T00:43:52;4.43;;;3.20;;
8714;SDS011;4394;51.208;8.904;2023-08-12T00:46:42;4.17;;;2.60;;
8714;SDS011;4394;51.208;8.904;2023-08-12T00:49:31;3.27;;;2.97;;
8714;SDS011;4394;51.208;8.904;2023-08-12T00:52:20;4.43;;;3.00;;
8714;SDS011;4394;51.208;8.904;2023-08-12T00:55:08;3.77;;;3.37;;
8714;SDS011;4394;51.208;8.904;2023-08-12T00:57:57;7.03;;;3.43;;
8714;SDS011;4394;51.208;8.904;2023-08-12T01:00:46;4.53;;;3.50;;
8714;SDS011;4394;51.208;8.904;2023-08-12T01:03:35;4.00;;;3.60;;
8714;SDS011;4394;51.208;8.904;2023-08-12T01:06:24;4.47;;;3.77;;
8714;SDS011;4394;51.208;8.904;2023-08-12T01:09:12;4.23;;;3.67;;
8714;SDS011;4394;51.208;8.904;2023-08-12T01:12:01;4.53;;;3.40;;
8714;SDS011;4394;51.208;8.904;2023-08-12T01:14:56;6.57;;;3.30;;
8714;SDS011;4394;51.208;8.904;2023-08-12T01:17:47;5.70;;;3.80;;
8714;SDS011;4394;51.208;8.904;2023-08-12T01:20:40;4.83;;;3.73;;
8714;SDS011;4394;51.208;8.904;2023-08-12T01:23:29;4.43;;;3.73;;
8714;SDS011;4394;51.208;8.904;2023-08-12T01:26:18;4.47;;;3.95;;
8714;SDS011;4394;51.208;8.904;2023-08-12T01:29:06;3.93;;;3.57;;
8714;SDS011;4394;51.208;8.904;2023-08-12T01:31:55;7.23;;;3.73;;
8714;SDS011;4394;51.208;8.904;2023-08-12T01:34:50;4.00;;;3.60;;
8714;SDS011;4394;51.208;8.904;2023-08-12T01:37:45;4.77;;;3.20;;
8714;SDS011;4394;51.208;8.904;2023-08-12T01:40:36;4.47;;;3.60;;
8714;SDS011;4394;51.208;8.904;2023-08-12T01:43:26;3.97;;;3.57;;
8714;SDS011;4394;51.208;8.904;2023-08-12T01:46:15;3.93;;;3.53;;
8714;SDS011;4394;51.208;8.904;2023-08-12T01:49:04;4.23;;;3.60;;
8714;SDS011;4394;51.208;8.904;2023-08-12T01:51:52;4.87;;;3.60;;
8714;SDS011;4394;51.208;8.904;2023-08-12T01:54:40;4.23;;;3.53;;
8714;SDS011;4394;51.208;8.904;2023-08-12T01:57:29;3.77;;;3.33;;
8714;SDS011;4394;51.208;8.904;2023-08-12T02:00:17;5.13;;;3.80;;
8714;SDS011;4394;51.208;8.904;2023-08-12T02:03:06;4.77;;;3.57;;
8714;SDS011;4394;51.208;8.904;2023-08-12T02:05:55;4.53;;;3.63;;
8714;SDS011;4394;51.208;8.904;2023-08-12T02:08:43;4.20;;;3.80;;
8714;SDS011;4394;51.208;8.904;2023-08-12T02:11:31;6.15;;;4.78;;
8714;SDS011;4394;51.208;8.904;2023-08-12T02:14:21;5.13;;;4.23;;
8714;SDS011;4394;51.208;8.904;2023-08-12T02:17:09;6.80;;;4.73;;
8714;SDS011;4394;51.208;8.904;2023-08-12T02:19:58;6.73;;;4.67;;
8714;SDS011;4394;51.208;8.904;2023-08-12T02:22:46;6.63;;;4.23;;
8714;SDS011;4394;51.208;8.904;2023-08-12T02:25:34;6.13;;;4.50;;
8714;SDS011;4394;51.208;8.904;2023-08-12T02:28:22;5.10;;;4.60;;
8714;SDS011;4394;51.208;8.904;2023-08-12T02:31:12;5.13;;;4.63;;
8714;SDS011;4394;51.208;8.904;2023-08-12T02:34:00;7.83;;;4.60;;
8714;SDS011;4394;51.208;8.904;2023-08-12T02:36:49;5.47;;;4.97;;
8714;SDS011;4394;51.208;8.904;2023-08-12T02:39:37;5.40;;;3.93;;
8714;SDS011;4394;51.208;8.904;2023-08-12T02:42:25;7.13;;;6.10;;
8714;SDS011;4394;51.208;8.904;2023-08-12T02:45:13;10.60;;;5.70;;
8714;SDS011;4394;51.208;8.904;2023-08-12T02:48:03;9.38;;;6.80;;
8714;SDS011;4394;51.208;8.904;2023-08-12T02:50:52;10.47;;;7.50;;
8714;SDS011;4394;51.208;8.904;2023-08-12T02:53:40;8.20;;;7.27;;
8714;SDS011;4394;51.208;8.904;2023-08-12T02:56:28;10.57;;;8.53;;
8714;SDS011;4394;51.208;8.904;2023-08-12T02:59:16;12.65;;;8.55;;
8714;SDS011;4394;51.208;8.904;2023-08-12T03:02:05;12.70;;;10.77;;
8714;SDS011;4394;51.208;8.904;2023-08-12T03:04:54;15.70;;;12.70;;
8714;SDS011;4394;51.208;8.904;2023-08-12T03:07:42;18.97;;;14.33;;
8714;SDS011;4394;51.208;8.904;2023-08-12T03:10:30;17.23;;;13.47;;
8714;SDS011;4394;51.208;8.904;2023-08-12T03:13:20;13.77;;;12.07;;
8714;SDS011;4394;51.208;8.904;2023-08-12T03:16:10;13.77;;;11.73;;
8714;SDS011;4394;51.208;8.904;2023-08-12T03:18:59;11.90;;;10.70;;
8714;SDS011;4394;51.208;8.904;2023-08-12T03:21:49;12.57;;;10.50;;
8714;SDS011;4394;51.208;8.904;2023-08-12T03:24:37;11.90;;;10.63;;
8714;SDS011;4394;51.208;8.904;2023-08-12T03:27:25;12.00;;;9.57;;
8714;SDS011;4394;51.208;8.904;2023-08-12T03:30:13;11.23;;;10.13;;
8714;SDS011;4394;51.208;8.904;2023-08-12T03:33:01;14.53;;;11.40;;
8714;SDS011;4394;51.208;8.904;2023-08-12T03:35:50;16.10;;;11.97;;
8714;SDS011;4394;51.208;8.904;2023-08-12T03:38:39;14.40;;;12.60;;
8714;SDS011;4394;51.208;8.904;2023-08-12T03:41:28;13.87;;;11.73;;
8714;SDS011;4394;51.208;8.904;2023-08-12T03:44:17;16.27;;;12.83;;
8714;SDS011;4394;51.208;8.904;2023-08-12T03:47:05;14.10;;;11.50;;
8714;SDS011;4394;51.208;8.904;2023-08-12T03:49:53;15.87;;;12.10;;
8714;SDS011;4394;51.208;8.904;2023-08-12T03:52:41;11.67;;;10.47;;
8714;SDS011;4394;51.208;8.904;2023-08-12T03:55:31;13.50;;;11.57;;
8714;SDS011;4394;51.208;8.904;2023-08-12T03:58:19;17.03;;;12.43;;
8714;SDS011;4394;51.208;8.904;2023-08-12T04:01:07;12.77;;;11.47;;
8714;SDS011;4394;51.208;8.904;2023-08-12T04:03:56;13.33;;;11.93;;
8714;SDS011;4394;51.208;8.904;2023-08-12T04:06:44;14.03;;;12.37;;
8714;SDS011;4394;51.208;8.904;2023-08-12T04:09:34;16.07;;;13.67;;
8714;SDS011;4394;51.208;8.904;2023-08-12T04:12:24;16.97;;;14.40;;
8714;SDS011;4394;51.208;8.904;2023-08-12T04:15:12;16.50;;;13.80;;
8714;SDS011;4394;51.208;8.904;2023-08-12T04:18:00;14.60;;;12.53;;
8714;SDS011;4394;51.208;8.904;2023-08-12T04:20:48;15.17;;;11.63;;
8714;SDS011;4394;51.208;8.904;2023-08-12T04:23:37;12.23;;;11.03;;
8714;SDS011;4394;51.208;8.904;2023-08-12T04:26:25;12.13;;;10.27;;
8714;SDS011;4394;51.208;8.904;2023-08-12T04:29:15;13.50;;;12.10;;
8714;SDS011;4394;51.208;8.904;2023-08-12T04:32:03;16.33;;;12.23;;
8714;SDS011;4394;51.208;8.904;2023-08-12T04:34:51;15.00;;;13.32;;
8714;SDS011;4394;51.208;8.904;2023-08-12T04:37:39;14.60;;;12.10;;
8714;SDS011;4394;51.208;8.904;2023-08-12T04:40:28;13.13;;;11.73;;
8714;SDS011;4394;51.208;8.904;2023-08-12T04:43:16;12.23;;;9.97;;
8714;SDS011;4394;51.208;8.904;2023-08-12T04:46:05;11.43;;;10.23;;
8714;SDS011;4394;51.208;8.904;2023-08-12T04:48:53;12.73;;;10.63;;
8714;SDS011;4394;51.208;8.904;2023-08-12T04:51:41;13.17;;;11.87;;
8714;SDS011;4394;51.208;8.904;2023-08-12T04:54:29;12.77;;;11.40;;
8714;SDS011;4394;51.208;8.904;2023-08-12T04:57:17;12.60;;;11.07;;
8714;SDS011;4394;51.208;8.904;2023-08-12T05:00:06;13.27;;;11.87;;
8714;SDS011;4394;51.208;8.904;2023-08-12T05:02:56;14.00;;;12.27;;
8714;SDS011;4394;51.208;8.904;2023-08-12T05:05:48;15.63;;;13.93;;
8714;SDS011;4394;51.208;8.904;2023-08-12T05:08:37;17.67;;;15.40;;
8714;SDS011;4394;51.208;8.904;2023-08-12T05:11:25;18.63;;;15.23;;
8714;SDS011;4394;51.208;8.904;2023-08-12T05:14:13;20.65;;;18.45;;
8714;SDS011;4394;51.208;8.904;2023-08-12T05:17:01;18.17;;;16.27;;
8714;SDS011;4394;51.208;8.904;2023-08-12T05:19:51;19.43;;;16.07;;
8714;SDS011;4394;51.208;8.904;2023-08-12T05:22:39;14.30;;;12.80;;
8714;SDS011;4394;51.208;8.904;2023-08-12T05:25:27;14.98;;;13.38;;
8714;SDS011;4394;51.208;8.904;2023-08-12T05:28:15;13.20;;;11.90;;
8714;SDS011;4394;51.208;8.904;2023-08-12T05:31:03;12.50;;;11.23;;
8714;SDS011;4394;51.208;8.904;2023-08-12T05:33:52;11.53;;;10.33;;
8714;SDS011;4394;51.208;8.904;2023-08-12T05:36:42;11.77;;;10.57;;
8714;SDS011;4394;51.208;8.904;2023-08-12T05:39:30;13.03;;;11.23;;
8714;SDS011;4394;51.208;8.904;2023-08-12T05:42:18;14.27;;;12.77;;
8714;SDS011;4394;51.208;8.904;2023-08-12T05:45:07;14.07;;;12.67;;
8714;SDS011;4394;51.208;8.904;2023-08-12T05:47:55;14.77;;;13.00;;
8714;SDS011;4394;51.208;8.904;2023-08-12T05:50:45;15.17;;;13.37;;
8714;SDS011;4394;51.208;8.904;2023-08-12T05:53:34;16.73;;;14.40;;
8714;SDS011;4394;51.208;8.904;2023-08-12T05:56:22;17.33;;;14.23;;
8714;SDS011;4394;51.208;8.904;2023-08-12T05:59:11;16.17;;;14.37;;
8714;SDS011;4394;51.208;8.904;2023-08-12T06:01:59;19.37;;;14.33;;
8714;SDS011;4394;51.208;8.904;2023-08-12T06:04:47;16.87;;;15.07;;
8714;SDS011;4394;51.208;8.904;2023-08-12T06:07:35;17.63;;;14.80;;
8714;SDS011;4394;51.208;8.904;2023-08-12T06:10:24;16.20;;;14.33;;
8714;SDS011;4394;51.208;8.904;2023-08-12T06:13:12;17.10;;;14.63;;
8714;SDS011;4394;51.208;8.904;2023-08-12T06:16:01;20.67;;;18.00;;
8714;SDS011;4394;51.208;8.904;2023-08-12T06:18:49;17.43;;;15.63;;
8714;SDS011;4394;51.208;8.904;2023-08-12T06:21:37;20.33;;;16.77;;
8714;SDS011;4394;51.208;8.904;2023-08-12T06:24:25;19.23;;;16.63;;
8714;SDS011;4394;51.208;8.904;2023-08-12T06:27:15;18.70;;;16.27;;
8714;SDS011;4394;51.208;8.904;2023-08-12T06:30:06;18.00;;;15.93;;
8714;SDS011;4394;51.208;8.904;2023-08-12T06:32:55;19.60;;;17.50;;
8714;SDS011;4394;51.208;8.904;2023-08-12T06:35:43;22.00;;;19.03;;
8714;SDS011;4394;51.208;8.904;2023-08-12T06:38:36;22.13;;;18.60;;
8714;SDS011;4394;51.208;8.904;2023-08-12T06:41:24;23.73;;;19.47;;
8714;SDS011;4394;51.208;8.904;2023-08-12T06:44:14;20.67;;;17.77;;
8714;SDS011;4394;51.208;8.904;2023-08-12T06:47:02;19.80;;;17.17;;
8714;SDS011;4394;51.208;8.904;2023-08-12T06:49:50;18.63;;;16.47;;
8714;SDS011;4394;51.208;8.904;2023-08-12T06:52:39;17.97;;;15.20;;
8714;SDS011;4394;51.208;8.904;2023-08-12T06:55:27;18.70;;;16.27;;
8714;SDS011;4394;51.208;8.904;2023-08-12T06:58:15;20.10;;;15.63;;
8714;SDS011;4394;51.208;8.904;2023-08-12T07:01:04;16.37;;;14.53;;
8714;SDS011;4394;51.208;8.904;2023-08-12T07:03:52;16.43;;;14.60;;
8714;SDS011;4394;51.208;8.904;2023-08-12T07:06:40;15.93;;;14.32;;
8714;SDS011;4394;51.208;8.904;2023-08-12T07:09:29;15.23;;;13.63;;
8714;SDS011;4394;51.208;8.904;2023-08-12T07:12:17;16.77;;;13.73;;
8714;SDS011;4394;51.208;8.904;2023-08-12T07:15:05;15.03;;;13.53;;
8714;SDS011;4394;51.208;8.904;2023-08-12T07:17:55;15.17;;;12.67;;
8714;SDS011;4394;51.208;8.904;2023-08-12T07:20:44;14.27;;;12.40;;
8714;SDS011;4394;51.208;8.904;2023-08-12T07:23:32;11.37;;;10.27;;
8714;SDS011;4394;51.208;8.904;2023-08-12T07:26:20;15.33;;;11.23;;
8714;SDS011;4394;51.208;8.904;2023-08-12T07:29:09;12.90;;;11.50;;
8714;SDS011;4394;51.208;8.904;2023-08-12T07:31:57;12.43;;;11.33;;
8714;SDS011;4394;51.208;8.904;2023-08-12T07:34:46;13.57;;;12.17;;
8714;SDS011;4394;51.208;8.904;2023-08-12T07:37:34;12.47;;;11.13;;
8714;SDS011;4394;51.208;8.904;2023-08-12T07:40:22;12.10;;;10.53;;
8714;SDS011;4394;51.208;8.904;2023-08-12T07:43:11;10.97;;;9.90;;
8714;SDS011;4394;51.208;8.904;2023-08-12T07:45:59;12.70;;;10.90;;
8714;SDS011;4394;51.208;8.904;2023-08-12T07:48:55;10.90;;;9.80;;
8714;SDS011;4394;51.208;8.904;2023-08-12T07:51:45;11.00;;;9.87;;
8714;SDS011;4394;51.208;8.904;2023-08-12T07:54:33;12.50;;;11.23;;
8714;SDS011;4394;51.208;8.904;2023-08-12T07:57:21;9.73;;;8.73;;
8714;SDS011;4394;51.208;8.904;2023-08-12T08:00:10;9.73;;;8.73;;
8714;SDS011;4394;51.208;8.904;2023-08-12T08:02:59;8.80;;;8.00;;
8714;SDS011;4394;51.208;8.904;2023-08-12T08:05:47;9.37;;;8.47;;
8714;SDS011;4394;51.208;8.904;2023-08-12T08:08:37;10.60;;;8.67;;
8714;SDS011;4394;51.208;8.904;2023-08-12T08:11:25;9.93;;;8.80;;
8714;SDS011;4394;51.208;8.904;2023-08-12T08:14:13;9.77;;;8.20;;
8714;SDS011;4394;51.208;8.904;2023-08-12T08:17:01;8.73;;;7.83;;
8714;SDS011;4394;51.208;8.904;2023-08-12T08:19:49;10.57;;;9.53;;
8714;SDS011;4394;51.208;8.904;2023-08-12T08:22:37;9.83;;;8.83;;
8714;SDS011;4394;51.208;8.904;2023-08-12T08:25:27;10.93;;;9.87;;
8714;SDS011;4394;51.208;8.904;2023-08-12T08:28:16;9.50;;;8.60;;
8714;SDS011;4394;51.208;8.904;2023-08-12T08:31:04;9.13;;;8.23;;
8714;SDS011;4394;51.208;8.904;2023-08-12T08:33:52;9.90;;;8.90;;
8714;SDS011;4394;51.208;8.904;2023-08-12T08:36:40;9.10;;;8.27;;
8714;SDS011;4394;51.208;8.904;2023-08-12T08:39:28;8.97;;;8.07;;
8714;SDS011;4394;51.208;8.904;2023-08-12T08:42:18;9.47;;;8.57;;
8714;SDS011;4394;51.208;8.904;2023-08-12T08:45:09;9.20;;;8.40;;
8714;SDS011;4394;51.208;8.904;2023-08-12T08:48:01;9.17;;;8.37;;
8714;SDS011;4394;51.208;8.904;2023-08-12T08:50:50;10.03;;;8.87;;
8714;SDS011;4394;51.208;8.904;2023-08-12T08:53:39;9.67;;;8.67;;
8714;SDS011;4394;51.208;8.904;2023-08-12T08:56:28;8.97;;;8.07;;
8714;SDS011;4394;51.208;8.904;2023-08-12T08:59:18;9.27;;;8.37;;
8714;SDS011;4394;51.208;8.904;2023-08-12T09:02:07;9.63;;;8.73;;
8714;SDS011;4394;51.208;8.904;2023-08-12T09:05:01;10.20;;;8.77;;
8714;SDS011;4394;51.208;8.904;2023-08-12T09:07:50;9.57;;;8.67;;
8714;SDS011;4394;51.208;8.904;2023-08-12T09:10:40;8.80;;;8.00;;
8714;SDS011;4394;51.208;8.904;2023-08-12T09:13:28;9.33;;;8.43;;
8714;SDS011;4394;51.208;8.904;2023-08-12T09:16:18;8.83;;;7.90;;
8714;SDS011;4394;51.208;8.904;2023-08-12T09:19:06;8.70;;;7.67;;
8714;SDS011;4394;51.208;8.904;2023-08-12T09:21:55;9.10;;;8.20;;
8714;SDS011;4394;51.208;8.904;2023-08-12T09:24:43;8.70;;;7.80;;
8714;SDS011;4394;51.208;8.904;2023-08-12T09:27:32;6.97;;;6.27;;
8714;SDS011;4394;51.208;8.904;2023-08-12T09:30:23;6.97;;;6.37;;
8714;SDS011;4394;51.208;8.904;2023-08-12T09:33:12;7.23;;;6.63;;
8714;SDS011;4394;51.208;8.904;2023-08-12T09:36:00;7.27;;;6.57;;
8714;SDS011;4394;51.208;8.904;2023-08-12T09:38:48;7.97;;;7.10;;
8714;SDS011;4394;51.208;8.904;2023-08-12T09:41:37;7.00;;;6.33;;
8714;SDS011;4394;51.208;8.904;2023-08-12T09:44:25;7.13;;;6.40;;
8714;SDS011;4394;51.208;8.904;2023-08-12T09:47:14;7.73;;;6.43;;
8714;SDS011;4394;51.208;8.904;2023-08-12T09:50:03;7.70;;;6.90;;
8714;SDS011;4394;51.208;8.904;2023-08-12T09:52:52;7.50;;;6.67;;
8714;SDS011;4394;51.208;8.904;2023-08-12T09:55:42;7.33;;;6.63;;
8714;SDS011;4394;51.208;8.904;2023-08-12T09:58:34;7.10;;;6.47;;
8714;SDS011;4394;51.208;8.904;2023-08-12T10:01:23;6.73;;;6.13;;
8714;SDS011;4394;51.208;8.904;2023-08-12T10:04:12;6.63;;;5.77;;
8714;SDS011;4394;51.208;8.904;2023-08-12T10:07:05;6.97;;;6.27;;
8714;SDS011;4394;51.208;8.904;2023-08-12T10:09:55;5.83;;;5.30;;
8714;SDS011;4394;51.208;8.904;2023-08-12T10:12:43;6.80;;;5.70;;
8714;SDS011;4394;51.208;8.904;2023-08-12T10:15:32;5.90;;;5.40;;
8714;SDS011;4394;51.208;8.904;2023-08-12T10:18:21;6.50;;;5.90;;
8714;SDS011;4394;51.208;8.904;2023-08-12T10:21:11;6.80;;;6.20;;
8714;SDS011;4394;51.208;8.904;2023-08-12T10:24:02;6.30;;;5.70;;
8714;SDS011;4394;51.208;8.904;2023-08-12T10:26:53;6.03;;;5.50;;
8714;SDS011;4394;51.208;8.904;2023-08-12T10:29:42;7.30;;;5.37;;
8714;SDS011;4394;51.208;8.904;2023-08-12T10:32:30;5.60;;;5.10;;
8714;SDS011;4394;51.208;8.904;2023-08-12T10:35:19;7.13;;;6.43;;
8714;SDS011;4394;51.208;8.904;2023-08-12T10:38:08;5.60;;;5.10;;
8714;SDS011;4394;51.208;8.904;2023-08-12T10:44:07;6.03;;;5.13;;
8714;SDS011;4394;51.208;8.904;2023-08-12T10:46:55;5.13;;;4.63;;
8714;SDS011;4394;51.208;8.904;2023-08-12T10:49:47;5.73;;;5.20;;
8714;SDS011;4394;51.208;8.904;2023-08-12T10:52:36;4.90;;;4.50;;
8714;SDS011;4394;51.208;8.904;2023-08-12T10:55:25;5.23;;;4.77;;
8714;SDS011;4394;51.208;8.904;2023-08-12T10:58:25;6.00;;;4.90;;
8714;SDS011;4394;51.208;8.904;2023-08-12T11:01:16;6.27;;;4.90;;
8714;SDS011;4394;51.208;8.904;2023-08-12T11:04:15;5.43;;;4.93;;
8714;SDS011;4394;51.208;8.904;2023-08-12T11:07:14;5.40;;;4.90;;
8714;SDS011;4394;51.208;8.904;2023-08-12T11:10:04;5.13;;;4.73;;
8714;SDS011;4394;51.208;8.904;2023-08-12T11:12:57;4.83;;;4.43;;
8714;SDS011;4394;51.208;8.904;2023-08-12T11:15:47;5.10;;;4.60;;
8714;SDS011;4394;51.208;8.904;2023-08-12T11:18:36;5.03;;;4.63;;
8714;SDS011;4394;51.208;8.904;2023-08-12T11:21:24;5.93;;;5.33;;
8714;SDS011;4394;51.208;8.904;2023-08-12T11:24:13;5.17;;;4.67;;
8714;SDS011;4394;51.208;8.904;2023-08-12T11:27:03;5.30;;;4.80;;
8714;SDS011;4394;51.208;8.904;2023-08-12T11:29:51;4.93;;;4.53;;
8714;SDS011;4394;51.208;8.904;2023-08-12T11:32:41;4.80;;;4.40;;
8714;SDS011;4394;51.208;8.904;2023-08-12T11:35:30;4.90;;;4.40;;
8714;SDS011;4394;51.208;8.904;2023-08-12T11:38:18;5.03;;;4.60;;
8714;SDS011;4394;51.208;8.904;2023-08-12T11:41:07;4.87;;;4.47;;
8714;SDS011;4394;51.208;8.904;2023-08-12T11:43:55;4.47;;;3.90;;
8714;SDS011;4394;51.208;8.904;2023-08-12T11:46:43;4.77;;;4.37;;
8714;SDS011;4394;51.208;8.904;2023-08-12T11:49:32;4.82;;;4.38;;
8714;SDS011;4394;51.208;8.904;2023-08-12T11:52:20;4.90;;;4.50;;
8714;SDS011;4394;51.208;8.904;2023-08-12T11:55:10;4.40;;;4.00;;
8714;SDS011;4394;51.208;8.904;2023-08-12T11:57:58;4.80;;;4.40;;
8714;SDS011;4394;51.208;8.904;2023-08-12T12:00:46;4.43;;;4.03;;
8714;SDS011;4394;51.208;8.904;2023-08-12T12:03:35;4.40;;;4.10;;
8714;SDS011;4394;51.208;8.904;2023-08-12T12:06:32;4.63;;;4.10;;
8714;SDS011;4394;51.208;8.904;2023-08-12T12:09:23;4.63;;;4.10;;
8714;SDS011;4394;51.208;8.904;2023-08-12T12:12:12;4.60;;;3.65;;
8714;SDS011;4394;51.208;8.904;2023-08-12T12:15:01;3.83;;;3.53;;
8714;SDS011;4394;51.208;8.904;2023-08-12T12:17:51;4.10;;;3.70;;
8714;SDS011;4394;51.208;8.904;2023-08-12T12:20:53;4.47;;;4.07;;
8714;SDS011;4394;51.208;8.904;2023-08-12T12:23:44;3.83;;;3.53;;
8714;SDS011;4394;51.208;8.904;2023-08-12T12:26:32;3.97;;;3.55;;
8714;SDS011;4394;51.208;8.904;2023-08-12T12:29:21;3.50;;;3.20;;
8714;SDS011;4394;51.208;8.904;2023-08-12T12:32:10;3.78;;;3.47;;
8714;SDS011;4394;51.208;8.904;2023-08-12T12:34:59;4.30;;;3.90;;
8714;SDS011;4394;51.208;8.904;2023-08-12T12:37:46;4.22;;;3.83;;
8714;SDS011;4394;51.208;8.904;2023-08-12T12:40:36;3.80;;;3.50;;
8714;SDS011;4394;51.208;8.904;2023-08-12T12:43:24;4.97;;;3.28;;
8714;SDS011;4394;51.208;8.904;2023-08-12T12:46:12;3.95;;;3.17;;
8714;SDS011;4394;51.208;8.904;2023-08-12T12:49:01;3.60;;;3.30;;
8714;SDS011;4394;51.208;8.904;2023-08-12T12:51:49;3.22;;;2.92;;
8714;SDS011;4394;51.208;8.904;2023-08-12T12:54:37;3.45;;;3.15;;
8714;SDS011;4394;51.208;8.904;2023-08-12T12:57:27;3.38;;;3.03;;
8714;SDS011;4394;51.208;8.904;2023-08-12T13:00:15;3.30;;;3.10;;
8714;SDS011;4394;51.208;8.904;2023-08-12T13:03:03;3.40;;;3.10;;
8714;SDS011;4394;51.208;8.904;2023-08-12T13:05:52;2.97;;;2.78;;
8714;SDS011;4394;51.208;8.904;2023-08-12T13:08:40;3.87;;;3.00;;
8714;SDS011;4394;51.208;8.904;2023-08-12T13:11:28;3.13;;;2.83;;
8714;SDS011;4394;51.208;8.904;2023-08-12T13:14:18;3.73;;;3.43;;
8714;SDS011;4394;51.208;8.904;2023-08-12T13:17:07;3.50;;;2.60;;
8714;SDS011;4394;51.208;8.904;2023-08-12T13:19:55;2.53;;;2.23;;
8714;SDS011;4394;51.208;8.904;2023-08-12T13:22:43;3.05;;;2.55;;
8714;SDS011;4394;51.208;8.904;2023-08-12T13:25:33;3.55;;;2.60;;
8714;SDS011;4394;51.208;8.904;2023-08-12T13:28:21;2.65;;;2.38;;
8714;SDS011;4394;51.208;8.904;2023-08-12T13:31:10;2.70;;;2.50;;
8714;SDS011;4394;51.208;8.904;2023-08-12T13:33:59;2.47;;;2.22;;
8714;SDS011;4394;51.208;8.904;2023-08-12T13:36:47;3.20;;;2.72;;
8714;SDS011;4394;51.208;8.904;2023-08-12T13:39:35;2.60;;;2.40;;
8714;SDS011;4394;51.208;8.904;2023-08-12T13:42:23;2.40;;;2.20;;
8714;SDS011;4394;51.208;8.904;2023-08-12T13:45:11;2.95;;;2.40;;
8714;SDS011;4394;51.208;8.904;2023-08-12T13:48:01;2.58;;;2.38;;
8714;SDS011;4394;51.208;8.904;2023-08-12T13:50:49;2.42;;;2.22;;
8714;SDS011;4394;51.208;8.904;2023-08-12T13:53:38;3.75;;;2.60;;
8714;SDS011;4394;51.208;8.904;2023-08-12T13:56:26;3.28;;;2.20;;
8714;SDS011;4394;51.208;8.904;2023-08-12T13:59:18;3.30;;;2.28;;
8714;SDS011;4394;51.208;8.904;2023-08-12T14:02:06;2.35;;;2.15;;
8714;SDS011;4394;51.208;8.904;2023-08-12T14:04:55;2.28;;;2.08;;
8714;SDS011;4394;51.208;8.904;2023-08-12T14:07:43;2.50;;;2.30;;
8714;SDS011;4394;51.208;8.904;2023-08-12T14:10:32;2.70;;;2.50;;
8714;SDS011;4394;51.208;8.904;2023-08-12T14:13:20;3.00;;;2.38;;
8714;SDS011;4394;51.208;8.904;2023-08-12T14:16:08;2.63;;;2.42;;
8714;SDS011;4394;51.208;8.904;2023-08-12T14:18:56;2.90;;;2.38;;
8714;SDS011;4394;51.208;8.904;2023-08-12T14:21:46;2.80;;;2.08;;
8714;SDS011;4394;51.208;8.904;2023-08-12T14:24:34;2.35;;;2.15;;
8714;SDS011;4394;51.208;8.904;2023-08-12T14:27:22;2.97;;;1.95;;
8714;SDS011;4394;51.208;8.904;2023-08-12T14:30:10;2.88;;;2.20;;
8714;SDS011;4394;51.208;8.904;2023-08-12T14:32:59;2.33;;;2.13;;
8714;SDS011;4394;51.208;8.904;2023-08-12T14:35:47;2.42;;;1.83;;
8714;SDS011;4394;51.208;8.904;2023-08-12T14:38:37;2.13;;;1.70;;
8714;SDS011;4394;51.208;8.904;2023-08-12T14:41:25;3.25;;;2.10;;
8714;SDS011;4394;51.208;8.904;2023-08-12T14:44:13;1.90;;;1.80;;
8714;SDS011;4394;51.208;8.904;2023-08-12T14:47:01;2.75;;;1.73;;
8714;SDS011;4394;51.208;8.904;2023-08-12T14:49:51;2.20;;;2.00;;
8714;SDS011;4394;51.208;8.904;2023-08-12T14:52:39;1.73;;;1.60;;
8714;SDS011;4394;51.208;8.904;2023-08-12T14:55:29;2.88;;;2.08;;
8714;SDS011;4394;51.208;8.904;2023-08-12T14:58:17;1.77;;;1.50;;
8714;SDS011;4394;51.208;8.904;2023-08-12T15:01:05;2.92;;;1.85;;
8714;SDS011;4394;51.208;8.904;2023-08-12T15:03:53;3.45;;;1.70;;
8714;SDS011;4394;51.208;8.904;2023-08-12T15:06:42;1.65;;;1.55;;
8714;SDS011;4394;51.208;8.904;2023-08-12T15:09:30;1.77;;;1.50;;
8714;SDS011;4394;51.208;8.904;2023-08-12T15:12:19;1.50;;;1.40;;
8714;SDS011;4394;51.208;8.904;2023-08-12T15:15:07;1.40;;;1.30;;
8714;SDS011;4394;51.208;8.904;2023-08-12T15:17:56;3.58;;;1.63;;
8714;SDS011;4394;51.208;8.904;2023-08-12T15:20:44;1.60;;;1.50;;
8714;SDS011;4394;51.208;8.904;2023-08-12T15:23:32;1.55;;;1.45;;
8714;SDS011;4394;51.208;8.904;2023-08-12T15:26:21;1.35;;;1.25;;
8714;SDS011;4394;51.208;8.904;2023-08-12T15:29:11;1.50;;;1.40;;
8714;SDS011;4394;51.208;8.904;2023-08-12T15:31:59;1.52;;;1.42;;
8714;SDS011;4394;51.208;8.904;2023-08-12T15:34:48;1.17;;;1.10;;
8714;SDS011;4394;51.208;8.904;2023-08-12T15:37:36;3.22;;;1.20;;
8714;SDS011;4394;51.208;8.904;2023-08-12T15:40:24;1.70;;;1.40;;
8714;SDS011;4394;51.208;8.904;2023-08-12T15:43:12;1.40;;;1.30;;
8714;SDS011;4394;51.208;8.904;2023-08-12T15:46:01;4.00;;;1.60;;
8714;SDS011;4394;51.208;8.904;2023-08-12T15:48:50;1.52;;;1.40;;
8714;SDS011;4394;51.208;8.904;2023-08-12T15:51:38;1.67;;;1.58;;
8714;SDS011;4394;51.208;8.904;2023-08-12T15:54:27;2.28;;;1.60;;
8714;SDS011;4394;51.208;8.904;2023-08-12T15:57:15;1.90;;;1.45;;
8714;SDS011;4394;51.208;8.904;2023-08-12T16:00:03;1.60;;;1.50;;
8714;SDS011;4394;51.208;8.904;2023-08-12T16:02:56;1.60;;;1.48;;
8714;SDS011;4394;51.208;8.904;2023-08-12T16:05:44;1.83;;;1.27;;
8714;SDS011;4394;51.208;8.904;2023-08-12T16:08:32;2.70;;;1.50;;
8714;SDS011;4394;51.208;8.904;2023-08-12T16:11:21;2.08;;;1.38;;
8714;SDS011;4394;51.208;8.904;2023-08-12T16:14:09;1.50;;;1.40;;
8714;SDS011;4394;51.208;8.904;2023-08-12T16:16:57;1.15;;;1.10;;
8714;SDS011;4394;51.208;8.904;2023-08-12T16:19:47;1.83;;;1.40;;
8714;SDS011;4394;51.208;8.904;2023-08-12T16:22:35;2.47;;;1.50;;
8714;SDS011;4394;51.208;8.904;2023-08-12T16:25:24;1.33;;;1.23;;
8714;SDS011;4394;51.208;8.904;2023-08-12T16:28:13;2.47;;;1.60;;
8714;SDS011;4394;51.208;8.904;2023-08-12T16:31:01;1.75;;;1.60;;
8714;SDS011;4394;51.208;8.904;2023-08-12T16:33:49;1.65;;;1.45;;
8714;SDS011;4394;51.208;8.904;2023-08-12T16:36:39;1.40;;;1.30;;
8714;SDS011;4394;51.208;8.904;2023-08-12T16:39:27;1.27;;;1.10;;
8714;SDS011;4394;51.208;8.904;2023-08-12T16:42:15;3.67;;;0.80;;
8714;SDS011;4394;51.208;8.904;2023-08-12T16:45:07;2.92;;;1.13;;
8714;SDS011;4394;51.208;8.904;2023-08-12T16:47:55;1.40;;;0.98;;
8714;SDS011;4394;51.208;8.904;2023-08-12T16:50:44;3.15;;;1.20;;
8714;SDS011;4394;51.208;8.904;2023-08-12T16:53:33;3.25;;;0.95;;
8714;SDS011;4394;51.208;8.904;2023-08-12T16:56:22;2.87;;;0.90;;
8714;SDS011;4394;51.208;8.904;2023-08-12T16:59:10;2.05;;;0.90;;
8714;SDS011;4394;51.208;8.904;2023-08-12T17:01:59;1.40;;;0.90;;
8714;SDS011;4394;51.208;8.904;2023-08-12T17:04:48;1.13;;;0.73;;
8714;SDS011;4394;51.208;8.904;2023-08-12T17:07:36;1.80;;;0.63;;
8714;SDS011;4394;51.208;8.904;2023-08-12T17:10:25;1.63;;;0.57;;
8714;SDS011;4394;51.208;8.904;2023-08-12T17:13:15;1.17;;;0.80;;
8714;SDS011;4394;51.208;8.904;2023-08-12T17:16:04;1.00;;;0.85;;
8714;SDS011;4394;51.208;8.904;2023-08-12T17:18:52;0.83;;;0.80;;
8714;SDS011;4394;51.208;8.904;2023-08-12T17:21:40;3.03;;;1.00;;
8714;SDS011;4394;51.208;8.904;2023-08-12T17:24:29;0.68;;;0.68;;